Macuru Arrow — C6YH3 — position and weather

sailwx.info

Track history (hours):
 
Tides and Currents Weather Stations Pressure Air Temp Water Temp Dewpoint Dewpoint Depression Visibility Wind Speed Wind Dir Waves Ship Positions

Macuru Arrow

Last reported at 2017-Dec-14 13:14 UTC. Time now 2017-Dec-17 12:03 UTC.
Position N 35°59' E 120°31'.

Length 225 m; draft 7.1 m.

Type: Cargo ship. MMSI: 311032500.

Date/timePositionNaut miles runAvg speedWind from/ knotsBaromVisibWave heightAir tempDewpointWater temp
2017-Dec-14 13:14N 35°59' E 120°31'415.5
2017-Dec-14 13:00N 35°60' E 120°27'912.8
2017-Dec-14 12:19N 36°02' E 120°16'4 5.0
2017-Dec-14 11:27N 35°60' E 120°12'0 0.0
2017-Dec-14 10:21N 35°60' E 120°12'0 0.0
2017-Dec-14 02:44N 35°60' E 120°12'0 0.0
2017-Dec-14 02:19N 35°60' E 120°12'0 0.0
2017-Dec-14 00:33N 35°60' E 120°12'0 0.0
2017-Dec-13 21:15N 35°60' E 120°12'0 0.0
2017-Dec-13 09:23N 35°60' E 120°12'0 0.0
2017-Dec-13 08:22N 35°60' E 120°12'0 0.0
2017-Dec-12 17:30N 35°60' E 120°12'1 0.0
2017-Dec-11 19:56N 36°00' E 120°13'3 6.7
2017-Dec-11 19:25N 36°02' E 120°16'2 3.4
2017-Dec-11 18:55N 36°02' E 120°18'511.3
2017-Dec-11 18:27N 36°01' E 120°24'310 8.6
2017-Dec-10 06:34N 31°06' E 122°20'0 5.7
2017-Dec-10 06:29N 31°06' E 122°19'2311.5
2017-Dec-10 04:31N 31°16' E 121°55'213.3
2017-Dec-10 04:22N 31°16' E 121°53'514.9
2017-Dec-10 04:00N 31°18' E 121°47'  
Track history (hours):
 
Tides and Currents Weather Stations Pressure Air Temp Water Temp Dewpoint Dewpoint Depression Visibility Wind Speed Wind Dir Waves Ship Positions

Macuru Arrow

Last reported at 2017-Dec-14 13:14 UTC. Time now 2017-Dec-17 12:03 UTC.
Position N 35°59' E 120°31'.

Length 225 m; draft 7.1 m.

Type: Cargo ship. MMSI: 311032500.

Date/timePositionNaut miles runAvg speedWind from/ knotsBaromVisibWave heightAir tempDewpointWater temp
2017-Dec-14 13:14N 35°59' E 120°31'415.5
2017-Dec-14 13:00N 35°60' E 120°27'912.8
2017-Dec-14 12:19N 36°02' E 120°16'4 5.0
2017-Dec-14 11:27N 35°60' E 120°12'0 0.0
2017-Dec-14 10:21N 35°60' E 120°12'0 0.0
2017-Dec-14 02:44N 35°60' E 120°12'0 0.0
2017-Dec-14 02:19N 35°60' E 120°12'0 0.0
2017-Dec-14 00:33N 35°60' E 120°12'0 0.0
2017-Dec-13 21:15N 35°60' E 120°12'0 0.0
2017-Dec-13 09:23N 35°60' E 120°12'0 0.0
2017-Dec-13 08:22N 35°60' E 120°12'0 0.0
2017-Dec-12 17:30N 35°60' E 120°12'1 0.0
2017-Dec-11 19:56N 36°00' E 120°13'3 6.7
2017-Dec-11 19:25N 36°02' E 120°16'2 3.4
2017-Dec-11 18:55N 36°02' E 120°18'511.3
2017-Dec-11 18:27N 36°01' E 120°24'310 8.6
2017-Dec-10 06:34N 31°06' E 122°20'0 5.7
2017-Dec-10 06:29N 31°06' E 122°19'2311.5
2017-Dec-10 04:31N 31°16' E 121°55'213.3
2017-Dec-10 04:22N 31°16' E 121°53'514.9
2017-Dec-10 04:00N 31°18' E 121°47'  

Dump ship's entire track history